Nearby METAR Reports

 

KMLE - Omaha/Millard, Nebraska, USA
Distance from station: NE 1mi, 2km
Updated: Sat, 13-Apr-2024 1:35pm CDT
Clear
Clear
 Wind from S
Wind: S 10 mph , 17 km/h, Gust: 16 mph , 26 km/h
Temperature: 77°F , 25°C
Dew Point: 46°F , 8°C
Humidity: 34%
Barometer: 29.81 inHg , 1009.5 hPa
Clouds: Clear
Visibility: 10 miles , 16 km
2024/04/13 18:35 KMLE 131835Z AUTO 17009G14KT 10SM CLR 25/08 A2981 RMK AO2 T02490080
KOFF - Offutt Afb/Belle, Nebraska, USA
Distance from station: ESE 12mi, 20km
Updated: Sat, 13-Apr-2024 1:20pm CDT
Mostly cloudy
Mostly cloudy
 Wind from SE
Wind: SE 15 mph , 24 km/h
Temperature: 79°F , 26°C
Dew Point: 43°F , 6°C
Humidity: 28%
Barometer: 29.82 inHg , 1009.8 hPa
Clouds: Mostly cloudy
Visibility: 10 miles , 16 km
Cloud details: Mostly cloudy 18000 ft
Mostly cloudy 20000 ft
2024/04/13 18:20 KOFF 131820Z 14013KT 10SM BKN180 BKN200 26/06 A2982 RMK AO2A WSHFT 09 SLP099
 
KOMA - Omaha/Eppley, Nebraska, USA
Distance from station: NE 15mi, 24km
Updated: Sat, 13-Apr-2024 1:52pm CDT
Mostly cloudy
Mostly cloudy
 Wind from SSE
Wind: SSE 15 mph , 24 km/h
Temperature: 77°F , 25°C
Dew Point: 45°F , 7°C
Humidity: 32%
Barometer: 29.83 inHg , 1010.2 hPa
Clouds: Mostly cloudy
Visibility: 10 miles , 16 km
Cloud details: Few Clouds 10000 ft
Partly cloudy 18000 ft
Mostly cloudy 25000 ft
2024/04/13 18:52 KOMA 131852Z 16013KT 10SM FEW100 SCT180 BKN250 25/07 A2983 RMK AO2 SLP110 T02500067 $
KBTA - Blair Muni, Nebraska, USA
Distance from station: N 16mi, 25km
Updated: Sat, 13-Apr-2024 1:35pm CDT
Clear
Clear
 Wind from SSE
Wind: SSE 14 mph , 22 km/h, Gust: 22 mph , 35 km/h
Temperature: 77°F , 25°C
Dew Point: 45°F , 7°C
Humidity: 32%
Barometer: 29.82 inHg , 1009.8 hPa
Clouds: Clear
Visibility: 10 miles , 16 km
2024/04/13 18:35 KBTA 131835Z AUTO 16012G19KT 10SM CLR 25/07 A2982 RMK AO2 T02470068
 
KCBF - Council Bluffs, Iowa, USA
Distance from station: ENE 20mi, 32km
Updated: Sat, 13-Apr-2024 1:35pm CDT
Clear
Clear
 Wind from S
Wind: S 18 mph , 30 km/h
Temperature: 77°F , 25°C
Dew Point: 46°F , 8°C
Humidity: 34%
Barometer: 29.81 inHg , 1009.5 hPa
Clouds: Clear
Visibility: 10 miles , 16 km
2024/04/13 18:35 KCBF 131835Z AUTO 17016KT 10SM CLR 25/08 A2981 RMK AO2
KPMV - Plattsmouth Muni, Nebraska, USA
Distance from station: SE 20mi, 32km
Updated: Sat, 13-Apr-2024 1:35pm CDT
Clear
Clear
 Wind from S
Wind: S 21 mph , 33 km/h, Gust: 26 mph , 43 km/h
Temperature: 82°F , 28°C
Dew Point: 46°F , 8°C
Humidity: 28%
Barometer: 29.82 inHg , 1009.8 hPa
Clouds: Clear
Visibility: 10 miles , 16 km
2024/04/13 18:35 KPMV 131835Z AUTO 18018G23KT 10SM CLR 28/08 A2982 RMK AO2 T02780080
 
KAHQ - Wahoo, Nebraska, USA
Distance from station: W 25mi, 40km
Updated: Sat, 13-Apr-2024 1:55pm CDT
Clear
Clear
 Wind from SSW
Wind: SSW 15 mph , 24 km/h, Gust: 24 mph , 39 km/h
Temperature: 79°F , 26°C
Dew Point: 45°F , 7°C
Humidity: 30%
Barometer: 29.80 inHg , 1009.1 hPa
Clouds: Clear
Visibility: 10 miles , 16 km
2024/04/13 18:55 KAHQ 131855Z AUTO 20013G21KT 10SM CLR 26/07 A2980 RMK AO2 T02630071
KFET - Fremont Muni Arp, Nebraska, USA
Distance from station: NW 27mi, 43km
Updated: Sat, 13-Apr-2024 1:35pm CDT
Clear
Clear
 Wind from SSE
Wind: SSE 14 mph , 22 km/h, Gust: 21 mph , 33 km/h
Temperature: 81°F , 27°C
Dew Point: 41°F , 5°C
Humidity: 24%
Barometer: 29.80 inHg , 1009.1 hPa
Clouds: Clear
Visibility: 10 miles , 16 km
2024/04/13 18:35 KFET 131835Z AUTO 15012G18KT 10SM CLR 27/05 A2980 RMK AO2 T02670053
 
KTQE - Tekamah, Nebraska, USA
Distance from station: N 40mi, 64km
Updated: Sat, 13-Apr-2024 1:54pm CDT
Clear
Clear
 Wind from S
Wind: S 18 mph , 30 km/h, Gust: 36 mph , 57 km/h
Temperature: 82°F , 28°C
Dew Point: 45°F , 7°C
Humidity: 26%
Barometer: 29.78 inHg , 1008.5 hPa
Clouds: Clear
Visibility: 10 miles , 16 km
2024/04/13 18:54 KTQE 131854Z AUTO 17016G31KT 10SM CLR 28/07 A2978 RMK AO2 PK WND 17031/1846 SLP077 T02780067
KLNK - Lincoln, Nebraska, USA
Distance from station: SW 41mi, 65km
Updated: Wed, 03-Apr-2024 5:54pm CDT
NOT Current
Clear
Clear
 Wind from N
Wind: N 26 mph , 43 km/h, Gust: 35 mph , 56 km/h
Temperature: 55°F , 13°C
Dew Point: 25°F , -4°C
Humidity: 31%
Barometer: 29.85 inHg , 1010.8 hPa
Clouds: Clear
Visibility: 10 miles , 16 km
2024/04/03 22:54 KLNK 032254Z 35023G30KT 10SM CLR 13/M04 A2985 RMK AO2 PK WND 34035/2229 SLP111 T01281039
 
KAFK - Nebraska City, Nebraska, USA
Distance from station: SSE 43mi, 70km
Updated: Sat, 13-Apr-2024 1:55pm CDT
Clear
Clear
 Wind from S
Wind: S 16 mph , 26 km/h, Gust: 24 mph , 39 km/h
Temperature: 75°F , 24°C
Dew Point: 45°F , 7°C
Humidity: 34%
Barometer: 29.80 inHg , 1009.1 hPa
Clouds: Clear
Visibility: 10 miles , 16 km
2024/04/13 18:55 KAFK 131855Z AUTO 19014G21KT 10SM CLR 24/07 A2980 RMK AO2 T02380072
KRDK - Red Oak, Iowa, USA
Distance from station: ESE 47mi, 75km
Updated: Sat, 13-Apr-2024 1:35pm CDT
Clear
Clear
 Wind from S
Wind: S 17 mph , 28 km/h, Gust: 28 mph , 44 km/h
Temperature: 81°F , 27°C
Dew Point: 45°F , 7°C
Humidity: 28%
Barometer: 29.85 inHg , 1010.8 hPa
Clouds: Clear
Visibility: 10 miles , 16 km
2024/04/13 18:35 KRDK 131835Z AUTO 17015G24KT 10SM CLR 27/07 A2985 RMK AO2
 
KSDA - Shenandoah Muni, Iowa, USA
Distance from station: SE 48mi, 77km
Updated: Sat, 13-Apr-2024 1:35pm CDT
Clear
Clear
 Wind from S
Wind: S 20 mph , 31 km/h
Temperature: 79°F , 26°C
Dew Point: 45°F , 7°C
Humidity: 30%
Barometer: 29.83 inHg , 1010.2 hPa
Clouds: Clear
Visibility: 10 miles , 16 km
2024/04/13 18:35 KSDA 131835Z AUTO 19017KT 10SM CLR 26/07 A2983 RMK AO2
KHNR - Harlan Muni, Iowa, USA
Distance from station: NE 49mi, 80km
Updated: Sat, 13-Apr-2024 1:35pm CDT
Clear
Clear
 Wind from S
Wind: S 22 mph , 35 km/h, Gust: 29 mph , 46 km/h
Temperature: 81°F , 27°C
Dew Point: 45°F , 7°C
Humidity: 28%
Barometer: 29.82 inHg , 1009.8 hPa
Clouds: Clear
Visibility: 10 miles , 16 km
2024/04/13 18:35 KHNR 131835Z AUTO 18019G25KT 10SM CLR 27/07 A2982 RMK A01